• Join FlightAware (Why Join?)
  • Login
  • US Flag 
05:32AM EDT


 

Airport Tracker/Info


-or-


 

Live Flight TrackerFlight Track Log ✈ N935SS ✈ 11-Apr-2013 ✈ KHPN - KBOS

Flight Track Log - Related Links

Times and Time Zones

All times are in EDT time to prevent confusion due to time zone crossing. See the N935SS flight status page for this flight to view local times or setup timezone preferences in your user account.

Time Position Orientation Groundspeed Altitude Reporting Facility
EDT Latitude Longitude Course Direction KTS MPH feet Rate Location/Type
01:05PM 41.0500 -73.7000 217° Southwest 171 197 1,200  Level New York TRACON
01:06PM 41.0167 -73.7333 217° Southwest 217 250 2,900 1,680 Climbing New York TRACON
01:07PM 41.0500 -73.8000 304° West 251 289 4,600 2,700 Climbing New York TRACON
01:09PM 41.1392 -73.8511 337° Northwest 273 314 10,200 2,460 Climbing Boston Center
01:10PM 41.1758 -73.7472 65° Northeast 291 335 11,000 420 Climbing Boston Center
01:11PM 41.2150 -73.5853 72° East 378 435 11,100 1,800 Climbing Boston Center
01:12PM 41.2600 -73.4644 64° Northeast 408 470 14,600 3,300 Climbing Boston Center
01:13PM 41.3089 -73.3328 64° Northeast 396 456 17,800 2,160 Climbing Boston Center
01:14PM 41.3622 -73.1925 63° Northeast 391 450 19,000 600 Climbing Boston Center
01:15PM 41.3817 -73.0625 79° East 386 444 19,000  Level Boston Center
01:16PM 41.3156 -72.9431 126° Southeast 338 389 19,000  Level Boston Center
01:17PM 41.2472 -72.8375 131° Southeast 355 409 19,000  Level Boston Center
01:18PM 41.2414 -72.7022 93° East 354 407 19,000  Level Boston Center
01:19PM 41.2894 -72.5781 63° Northeast 356 410 19,000  Level Boston Center
01:20PM 41.3500 -72.4236 62° Northeast 407 468 19,000  Level Boston Center
01:21PM 41.4000 -72.2933 63° Northeast 433 498 19,000  Level Boston Center
01:22PM 41.4622 -72.1353 62° Northeast 433 498 19,000 -480 Level Boston Center
01:23PM 41.5117 -72.0047 63° Northeast 428 493 18,100 -1,500 Descending Boston Center
01:24PM 41.5694 -71.8519 63° Northeast 422 486 16,100 -1,800 Descending Boston Center
01:25PM 41.6125 -71.7319 64° Northeast 411 473 14,500 -1,740 Descending Boston Center
01:26PM 41.6697 -71.5786 63° Northeast 411 473 12,600 -1,740 Descending Boston Center
01:27PM 41.7147 -71.4583 63° Northeast 401 461 11,100 -840 Descending Boston Center
01:28PM 41.7614 -71.3297 64° Northeast 362 417 11,000 -60 Descending Boston Center
01:29PM 41.7917 -71.2289 68° East 330 380 11,000 -60 Level Boston Center
01:30PM 41.8278 -71.1139 67° East 307 353 10,900 -780 Descending Boston Center
01:30PM 41.8833 -71.1000 11° North 235 270 9,700 -1,620 Descending KA90
01:31PM 41.9500 -71.1333 340° North 233 268 8,100 -1,680 Descending KA90
01:33PM 42.0167 -71.1167 11° North 229 264 6,200 -1,740 Descending KA90
01:33PM 42.0667 -71.1167 360° North 222 255 4,700 -1,500 Descending KA90
01:34PM 42.1167 -71.1000 14° North 210 242 3,400 -900 Descending KA90
01:35PM 42.1833 -71.1000 360° North 211 243 3,000 -420 Descending KA90
01:37PM 42.2333 -71.0667 26° Northeast 204 235 2,600 -720 Descending KA90
01:38PM 42.2833 -71.0500 14° North 167 192 1,500 -960 Descending KA90
01:39PM 42.3167 -71.0167 36° Northeast 137 158 700 -840 Descending KA90
01:43PM 42.3500 -71.0000 North  Level FlightAware Approximate
01:50PM 42.3630 -71.0064 North  Level Estimated
01:51PM 42.3630 -71.0064 North  Level Estimated
01:52PM 42.3630 -71.0064 North  Level Estimated
01:53PM 42.3630 -71.0064 North  Level Estimated
01:54PM 42.3630 -71.0064 North  Level Estimated
01:55PM 42.3630 -71.0064 North  Level Estimated